UAE83 OMDB-LSGG
Flight info
| Callsign | UAE83 |
|---|---|
| Flight time | N/A |
| Altitude | 34000 |
| Route | ANVIX L223 TARDI N629 BOTAM Y855 LAKLU Q204 NALKI G652 TOKRA DCT ALROK DCT BOSOB/N0486F360 DCT ITRUX Y511 PMA Z712 WEJ DCT RASDA DCT OTHON DCT VAXOS UN128 FOXLI UN128 RDS UL609 MES DCT FSK DCT DISOR DCT LONTA UL608 DOLEV DCT VEBAR DCT UZVEZ DCT BOSNA DCT NAVSU DCT KOREX DCT OBALA DCT NAKIT DCT ROTAR DCT OSKOR DCT SRN/N0393F220 DCT AOSTA L615 BANKO |
| Aircraft | B77W/H-SDE1E2E3FGHIJ2J3J4J5M1RWXY/LB1D1 |
Departure
| Time | 2026-04-24 11:15 |
|---|---|
| Airport | Dubai International Airport (OMDB) |
Arrival
| Time | N/A |
|---|---|
| Airport | Geneva International Airport (LSGG) |
| Time | Latitude | Longitude | Altitude | Speed | Heading |
|---|---|---|---|---|---|
| 2026-04-24 10:28 | 25.25292 | 55.35574 | 30 ft | 0 kts | 211° |
| 2026-04-24 11:02 | 25.25298 | 55.35578 | 32 ft | 2 kts | 211° |
| 2026-04-24 11:02 | 25.25312 | 55.35587 | 28 ft | 2 kts | 211° |
| 2026-04-24 11:02 | 25.25326 | 55.35597 | 32 ft | 2 kts | 211° |
| 2026-04-24 11:02 | 25.25338 | 55.35608 | 32 ft | 2 kts | 236° |
| 2026-04-24 11:03 | 25.25346 | 55.35624 | 32 ft | 2 kts | 254° |
| 2026-04-24 11:03 | 25.25349 | 55.35643 | 32 ft | 3 kts | 266° |
| 2026-04-24 11:03 | 25.25349 | 55.35665 | 32 ft | 3 kts | 285° |
| 2026-04-24 11:03 | 25.25341 | 55.35683 | 32 ft | 0 kts | 302° |
| 2026-04-24 11:07 | 25.25356 | 55.35657 | 32 ft | 4 kts | 302° |
| 2026-04-24 11:07 | 25.25374 | 55.35625 | 32 ft | 6 kts | 302° |
| 2026-04-24 11:07 | 25.25398 | 55.35581 | 29 ft | 8 kts | 302° |
| 2026-04-24 11:08 | 25.25430 | 55.35525 | 29 ft | 10 kts | 302° |
| 2026-04-24 11:08 | 25.25482 | 55.35431 | 30 ft | 23 kts | 302° |
| 2026-04-24 11:08 | 25.25573 | 55.35271 | 30 ft | 22 kts | 302° |
| 2026-04-24 11:08 | 25.25662 | 55.35160 | 29 ft | 18 kts | 348° |
| 2026-04-24 11:09 | 25.25779 | 55.35214 | 29 ft | 19 kts | 30° |
| 2026-04-24 11:09 | 25.25890 | 55.35286 | 30 ft | 19 kts | 31° |
| 2026-04-24 11:09 | 25.25986 | 55.35379 | 27 ft | 19 kts | 56° |
| 2026-04-24 11:09 | 25.26002 | 55.35515 | 28 ft | 19 kts | 106° |
| 2026-04-24 11:10 | 25.25942 | 55.35641 | 28 ft | 19 kts | 121° |
| 2026-04-24 11:10 | 25.25873 | 55.35765 | 28 ft | 20 kts | 122° |
| 2026-04-24 11:10 | 25.25793 | 55.35903 | 28 ft | 23 kts | 122° |
| 2026-04-24 11:10 | 25.25705 | 55.36062 | 28 ft | 26 kts | 121° |
| 2026-04-24 11:11 | 25.25607 | 55.36239 | 29 ft | 28 kts | 123° |
| 2026-04-24 11:11 | 25.25499 | 55.36427 | 29 ft | 29 kts | 122° |
| 2026-04-24 11:11 | 25.25394 | 55.36617 | 28 ft | 29 kts | 121° |
| 2026-04-24 11:11 | 25.25287 | 55.36806 | 29 ft | 29 kts | 122° |
| 2026-04-24 11:12 | 25.25181 | 55.36995 | 29 ft | 29 kts | 121° |
| 2026-04-24 11:12 | 25.25074 | 55.37185 | 30 ft | 29 kts | 122° |
| 2026-04-24 11:12 | 25.24967 | 55.37374 | 30 ft | 29 kts | 122° |
| 2026-04-24 11:12 | 25.24861 | 55.37564 | 30 ft | 29 kts | 122° |
| 2026-04-24 11:13 | 25.24757 | 55.37749 | 30 ft | 27 kts | 122° |
| 2026-04-24 11:13 | 25.24675 | 55.37895 | 29 ft | 20 kts | 121° |
| 2026-04-24 11:13 | 25.24627 | 55.37997 | 30 ft | 12 kts | 98° |
| 2026-04-24 11:13 | 25.24647 | 55.38042 | 30 ft | 5 kts | 43° |
| 2026-04-24 11:14 | 25.24672 | 55.38064 | 32 ft | 5 kts | 37° |
| 2026-04-24 11:14 | 25.24698 | 55.38085 | 33 ft | 5 kts | 36° |
| 2026-04-24 11:14 | 25.24732 | 55.38109 | 34 ft | 7 kts | 20° |
| 2026-04-24 11:14 | 25.24779 | 55.38073 | 35 ft | 17 kts | 306° |
| 2026-04-24 11:15 | 25.24943 | 55.37782 | 35 ft | 81 kts | 301° |
| 2026-04-24 11:15 | 25.25360 | 55.37032 | 35 ft | 147 kts | 301° |
| 2026-04-24 11:15 | 25.25981 | 55.35903 | 149 ft | 185 kts | 302° |
| 2026-04-24 11:15 | 25.26653 | 55.34661 | 717 ft | 194 kts | 305° |
| 2026-04-24 11:16 | 25.27376 | 55.33382 | 1307 ft | 197 kts | 305° |
| 2026-04-24 11:16 | 25.28097 | 55.32101 | 1980 ft | 196 kts | 304° |
| 2026-04-24 11:16 | 25.28819 | 55.30821 | 2602 ft | 197 kts | 303° |
| 2026-04-24 11:16 | 25.29382 | 55.29400 | 2868 ft | 214 kts | 273° |
| 2026-04-24 11:17 | 25.29080 | 55.27774 | 3158 ft | 219 kts | 244° |
| 2026-04-24 11:17 | 25.28375 | 55.26277 | 3685 ft | 221 kts | 243° |
| 2026-04-24 11:17 | 25.27661 | 55.24764 | 4238 ft | 224 kts | 242° |
| 2026-04-24 11:17 | 25.26944 | 55.23207 | 4724 ft | 230 kts | 243° |
| 2026-04-24 11:18 | 25.26243 | 55.21613 | 5290 ft | 231 kts | 243° |
| 2026-04-24 11:18 | 25.25537 | 55.19988 | 5807 ft | 237 kts | 243° |
| 2026-04-24 11:18 | 25.24814 | 55.18371 | 6444 ft | 235 kts | 236° |
| 2026-04-24 11:18 | 25.23632 | 55.17123 | 6875 ft | 241 kts | 206° |
| 2026-04-24 11:19 | 25.21996 | 55.16711 | 7358 ft | 248 kts | 182° |
| 2026-04-24 11:19 | 25.20256 | 55.16826 | 7784 ft | 254 kts | 172° |
| 2026-04-24 11:19 | 25.18584 | 55.17579 | 8205 ft | 269 kts | 143° |
| 2026-04-24 11:19 | 25.17396 | 55.19246 | 8458 ft | 288 kts | 120° |
| 2026-04-24 11:20 | 25.16462 | 55.21244 | 8918 ft | 296 kts | 120° |
| 2026-04-24 11:20 | 25.15506 | 55.23283 | 9572 ft | 301 kts | 120° |
| 2026-04-24 11:20 | 25.14865 | 55.24635 | 9986 ft | 303 kts | 121° |
| 2026-04-24 11:20 | 25.13543 | 55.27406 | 10848 ft | 306 kts | 121° |
| 2026-04-24 11:21 | 25.12883 | 55.28788 | 11306 ft | 308 kts | 121° |
| 2026-04-24 11:21 | 25.11876 | 55.30884 | 12042 ft | 311 kts | 121° |
| 2026-04-24 11:21 | 25.10527 | 55.33711 | 13055 ft | 315 kts | 119° |
| 2026-04-24 11:21 | 25.09601 | 55.35911 | 13787 ft | 320 kts | 117° |
| 2026-04-24 11:22 | 25.08986 | 55.37437 | 14221 ft | 323 kts | 117° |
| 2026-04-24 11:22 | 25.08062 | 55.39721 | 14924 ft | 328 kts | 117° |
| 2026-04-24 11:22 | 25.07120 | 55.42032 | 15579 ft | 334 kts | 116° |
| 2026-04-24 11:22 | 25.06179 | 55.44445 | 15897 ft | 353 kts | 116° |
| 2026-04-24 11:23 | 25.05194 | 55.47026 | 16064 ft | 376 kts | 115° |
| 2026-04-24 11:23 | 25.04151 | 55.49760 | 16221 ft | 399 kts | 115° |
| 2026-04-24 11:23 | 25.03041 | 55.52652 | 16451 ft | 418 kts | 115° |
| 2026-04-24 11:23 | 25.01898 | 55.55595 | 16922 ft | 428 kts | 116° |
| 2026-04-24 11:24 | 25.00490 | 55.58550 | 17507 ft | 433 kts | 123° |
| 2026-04-24 11:24 | 24.98892 | 55.61374 | 18183 ft | 437 kts | 125° |
| 2026-04-24 11:24 | 24.97249 | 55.64222 | 18782 ft | 441 kts | 124° |
| 2026-04-24 11:24 | 24.95637 | 55.67124 | 19379 ft | 446 kts | 123° |
| 2026-04-24 11:25 | 24.94058 | 55.70026 | 19953 ft | 450 kts | 124° |
| 2026-04-24 11:25 | 24.92323 | 55.72891 | 20499 ft | 453 kts | 128° |
| 2026-04-24 11:25 | 24.89773 | 55.76641 | 21253 ft | 458 kts | 130° |
| 2026-04-24 11:25 | 24.88492 | 55.78492 | 21624 ft | 461 kts | 130° |
| 2026-04-24 11:26 | 24.86563 | 55.81333 | 22171 ft | 466 kts | 129° |
| 2026-04-24 11:26 | 24.84633 | 55.84229 | 22703 ft | 470 kts | 129° |
| 2026-04-24 11:26 | 24.82694 | 55.87144 | 23223 ft | 474 kts | 129° |
| 2026-04-24 11:26 | 24.80723 | 55.90071 | 23661 ft | 478 kts | 129° |
| 2026-04-24 11:27 | 24.78725 | 55.93021 | 24066 ft | 482 kts | 129° |
| 2026-04-24 11:27 | 24.76568 | 55.95829 | 24472 ft | 481 kts | 137° |
| 2026-04-24 11:27 | 24.74098 | 55.98317 | 24881 ft | 483 kts | 142° |
| 2026-04-24 11:27 | 24.71541 | 56.00743 | 25287 ft | 487 kts | 141° |
| 2026-04-24 11:28 | 24.69017 | 56.03242 | 25694 ft | 491 kts | 140° |
| 2026-04-24 11:28 | 24.66508 | 56.05811 | 26109 ft | 495 kts | 139° |
| 2026-04-24 11:28 | 24.63993 | 56.08409 | 26528 ft | 498 kts | 139° |
| 2026-04-24 11:28 | 24.61457 | 56.11016 | 26939 ft | 501 kts | 139° |
| 2026-04-24 11:29 | 24.58903 | 56.13634 | 27323 ft | 504 kts | 139° |
| 2026-04-24 11:29 | 24.56382 | 56.16344 | 27710 ft | 509 kts | 135° |
| 2026-04-24 11:29 | 24.54041 | 56.19276 | 28064 ft | 513 kts | 133° |
| 2026-04-24 11:29 | 24.51720 | 56.22276 | 28403 ft | 516 kts | 132° |
| 2026-04-24 11:30 | 24.49390 | 56.25294 | 28776 ft | 519 kts | 132° |
| 2026-04-24 11:30 | 24.47047 | 56.28312 | 29114 ft | 521 kts | 132° |
| 2026-04-24 11:30 | 24.44681 | 56.31343 | 29531 ft | 522 kts | 133° |
| 2026-04-24 11:30 | 24.42314 | 56.34356 | 29987 ft | 521 kts | 133° |
| 2026-04-24 11:31 | 24.39950 | 56.37355 | 30395 ft | 520 kts | 133° |
| 2026-04-24 11:31 | 24.37581 | 56.40359 | 30798 ft | 520 kts | 133° |
| 2026-04-24 11:31 | 24.35219 | 56.43355 | 31154 ft | 520 kts | 133° |
| 2026-04-24 11:31 | 24.32851 | 56.46358 | 31527 ft | 520 kts | 133° |
| 2026-04-24 11:32 | 24.30488 | 56.49357 | 31893 ft | 520 kts | 132° |
| 2026-04-24 11:32 | 24.28244 | 56.52464 | 32254 ft | 521 kts | 128° |
| 2026-04-24 11:32 | 24.26106 | 56.55683 | 32589 ft | 521 kts | 127° |
| 2026-04-24 11:32 | 24.23996 | 56.58911 | 32928 ft | 522 kts | 127° |
| 2026-04-24 11:33 | 24.21882 | 56.62145 | 33271 ft | 522 kts | 127° |
| 2026-04-24 11:33 | 24.19759 | 56.65376 | 33539 ft | 523 kts | 127° |
| 2026-04-24 11:33 | 24.17618 | 56.68610 | 33758 ft | 526 kts | 127° |
| 2026-04-24 11:33 | 24.15456 | 56.71860 | 33804 ft | 531 kts | 127° |
| 2026-04-24 11:34 | 24.11094 | 56.78408 | 33830 ft | 532 kts | 127° |
| 2026-04-24 11:34 | 24.06727 | 56.84793 | 33830 ft | 523 kts | 134° |
| 2026-04-24 11:35 | 24.04031 | 56.87448 | 33849 ft | 520 kts | 147° |
| 2026-04-24 11:35 | 24.00948 | 56.89475 | 33853 ft | 517 kts | 158° |
| 2026-04-24 11:35 | 23.97609 | 56.90866 | 33849 ft | 511 kts | 169° |
| 2026-04-24 11:35 | 23.94155 | 56.91752 | 33869 ft | 510 kts | 171° |
| 2026-04-24 11:36 | 23.87209 | 56.93476 | 33863 ft | 513 kts | 170° |
| 2026-04-24 11:36 | 23.80252 | 56.95286 | 33867 ft | 515 kts | 169° |
| 2026-04-24 11:37 | 23.73297 | 56.97152 | 33874 ft | 515 kts | 169° |
| 2026-04-24 11:37 | 23.66353 | 56.99021 | 33873 ft | 513 kts | 169° |
| 2026-04-24 11:38 | 23.59422 | 57.00877 | 33884 ft | 512 kts | 169° |
| 2026-04-24 11:38 | 23.52515 | 57.02722 | 33891 ft | 510 kts | 169° |
| 2026-04-24 11:39 | 23.45622 | 57.04561 | 33900 ft | 509 kts | 169° |
| 2026-04-24 11:39 | 23.38681 | 57.05902 | 33917 ft | 504 kts | 181° |
| 2026-04-24 11:40 | 23.31733 | 57.05458 | 33907 ft | 498 kts | 195° |
| 2026-04-24 11:40 | 23.24985 | 57.03817 | 33916 ft | 497 kts | 197° |
| 2026-04-24 11:41 | 23.18229 | 57.02158 | 33915 ft | 498 kts | 196° |
| 2026-04-24 11:41 | 23.11782 | 56.99788 | 33907 ft | 483 kts | 220° |
| 2026-04-24 11:42 | 23.09378 | 56.97317 | 33924 ft | 474 kts | 236° |
| 2026-04-24 11:42 | 23.07597 | 56.94320 | 33910 ft | 471 kts | 247° |
| 2026-04-24 11:42 | 23.05516 | 56.87645 | 33906 ft | 468 kts | 257° |
| 2026-04-24 11:43 | 23.03830 | 56.80805 | 33893 ft | 470 kts | 257° |
| 2026-04-24 11:43 | 23.02112 | 56.73935 | 33883 ft | 472 kts | 257° |
| 2026-04-24 11:44 | 23.00348 | 56.67133 | 33867 ft | 471 kts | 256° |
| 2026-04-24 11:44 | 22.98548 | 56.60314 | 33861 ft | 469 kts | 256° |
| 2026-04-24 11:45 | 22.96747 | 56.53523 | 33855 ft | 467 kts | 256° |
| 2026-04-24 11:45 | 22.94953 | 56.46761 | 33851 ft | 466 kts | 256° |
| 2026-04-24 11:46 | 22.93162 | 56.40017 | 33844 ft | 465 kts | 256° |
| 2026-04-24 11:46 | 22.91371 | 56.33284 | 33839 ft | 464 kts | 256° |
| 2026-04-24 11:47 | 22.89582 | 56.26565 | 33839 ft | 464 kts | 256° |
| 2026-04-24 11:47 | 22.87788 | 56.19845 | 33831 ft | 464 kts | 256° |
| 2026-04-24 11:48 | 22.85990 | 56.13121 | 33827 ft | 464 kts | 256° |
| 2026-04-24 11:48 | 22.84189 | 56.06402 | 33825 ft | 464 kts | 256° |
| 2026-04-24 11:49 | 22.82387 | 55.99686 | 33822 ft | 464 kts | 256° |
| 2026-04-24 11:49 | 22.80582 | 55.92975 | 33817 ft | 464 kts | 256° |
| 2026-04-24 11:50 | 22.78776 | 55.86273 | 33812 ft | 463 kts | 255° |
| 2026-04-24 11:50 | 22.76970 | 55.79580 | 33818 ft | 463 kts | 255° |
| 2026-04-24 11:51 | 22.75162 | 55.72895 | 33813 ft | 462 kts | 255° |
| 2026-04-24 11:51 | 22.73353 | 55.66214 | 33804 ft | 462 kts | 255° |
| 2026-04-24 11:52 | 22.71541 | 55.59539 | 33802 ft | 462 kts | 255° |
| 2026-04-24 11:52 | 22.69728 | 55.52870 | 33806 ft | 461 kts | 255° |
| 2026-04-24 11:53 | 22.67913 | 55.46206 | 33796 ft | 461 kts | 255° |
| 2026-04-24 11:53 | 22.66097 | 55.39546 | 33798 ft | 461 kts | 255° |
| 2026-04-24 11:54 | 22.64279 | 55.32896 | 33795 ft | 461 kts | 255° |
| 2026-04-24 11:54 | 22.62459 | 55.26249 | 33795 ft | 461 kts | 255° |
| 2026-04-24 11:55 | 22.60634 | 55.19596 | 33789 ft | 461 kts | 255° |
| 2026-04-24 11:55 | 22.58806 | 55.12943 | 33777 ft | 461 kts | 255° |
| 2026-04-24 11:56 | 22.56978 | 55.06302 | 33780 ft | 460 kts | 255° |
| 2026-04-24 11:56 | 22.55150 | 54.99672 | 33780 ft | 460 kts | 255° |
| 2026-04-24 11:57 | 22.53321 | 54.93048 | 33776 ft | 460 kts | 255° |
| 2026-04-24 11:57 | 22.51490 | 54.86429 | 33786 ft | 459 kts | 255° |
| 2026-04-24 11:58 | 22.49655 | 54.79812 | 33767 ft | 459 kts | 255° |
| 2026-04-24 11:58 | 22.47820 | 54.73203 | 33791 ft | 459 kts | 255° |
| 2026-04-24 11:59 | 22.45994 | 54.66640 | 33770 ft | 459 kts | 255° |
| 2026-04-24 11:59 | 22.44156 | 54.60041 | 33769 ft | 459 kts | 255° |
| 2026-04-24 12:00 | 22.42301 | 54.53394 | 33777 ft | 458 kts | 255° |
| 2026-04-24 12:00 | 22.40470 | 54.46844 | 33782 ft | 458 kts | 254° |
| 2026-04-24 12:01 | 22.38625 | 54.40254 | 33785 ft | 458 kts | 254° |
| 2026-04-24 12:01 | 22.36777 | 54.33668 | 33781 ft | 458 kts | 254° |
| 2026-04-24 12:02 | 22.34928 | 54.27089 | 33781 ft | 457 kts | 254° |
| 2026-04-24 12:02 | 22.33077 | 54.20514 | 33780 ft | 457 kts | 254° |
| 2026-04-24 12:03 | 22.31225 | 54.13941 | 33779 ft | 457 kts | 254° |
| 2026-04-24 12:03 | 22.29369 | 54.07372 | 33777 ft | 458 kts | 254° |
| 2026-04-24 12:04 | 22.27507 | 54.00791 | 33775 ft | 459 kts | 254° |
| 2026-04-24 12:04 | 22.25638 | 53.94196 | 33778 ft | 460 kts | 254° |
| 2026-04-24 12:05 | 22.23763 | 53.87593 | 33781 ft | 461 kts | 253° |
| 2026-04-24 12:05 | 22.21880 | 53.80970 | 33778 ft | 462 kts | 253° |
| 2026-04-24 12:06 | 22.19989 | 53.74329 | 33777 ft | 463 kts | 253° |
| 2026-04-24 12:06 | 22.18090 | 53.67674 | 33778 ft | 465 kts | 253° |
| 2026-04-24 12:07 | 22.16185 | 53.61009 | 33779 ft | 465 kts | 253° |
| 2026-04-24 12:07 | 22.14274 | 53.54334 | 33781 ft | 466 kts | 253° |
| 2026-04-24 12:08 | 22.12372 | 53.47703 | 33780 ft | 466 kts | 253° |
| 2026-04-24 12:08 | 22.10455 | 53.41029 | 33779 ft | 466 kts | 253° |
| 2026-04-24 12:09 | 22.08535 | 53.34357 | 33782 ft | 466 kts | 253° |
| 2026-04-24 12:09 | 22.06927 | 53.28777 | 33780 ft | 465 kts | 253° |
| 2026-04-24 12:10 | 22.05006 | 53.22122 | 33783 ft | 464 kts | 254° |
| 2026-04-24 12:11 | 22.02127 | 53.12167 | 33785 ft | 463 kts | 254° |
| 2026-04-24 12:11 | 22.00219 | 53.05585 | 33777 ft | 463 kts | 254° |
| 2026-04-24 12:12 | 21.98299 | 52.98968 | 33782 ft | 463 kts | 254° |
| 2026-04-24 12:12 | 21.96375 | 52.92351 | 33783 ft | 463 kts | 254° |
| 2026-04-24 12:13 | 21.94447 | 52.85730 | 33785 ft | 463 kts | 254° |
| 2026-04-24 12:13 | 21.92517 | 52.79114 | 33778 ft | 463 kts | 254° |
| 2026-04-24 12:14 | 21.90933 | 52.72410 | 33780 ft | 462 kts | 264° |
| 2026-04-24 12:14 | 21.90880 | 52.65517 | 33790 ft | 461 kts | 276° |
| 2026-04-24 12:15 | 21.92055 | 52.58725 | 33789 ft | 462 kts | 281° |
| 2026-04-24 12:15 | 21.93367 | 52.51957 | 33781 ft | 462 kts | 281° |
| 2026-04-24 12:16 | 21.94654 | 52.45171 | 33782 ft | 462 kts | 281° |
| 2026-04-24 12:16 | 21.95908 | 52.38381 | 33780 ft | 462 kts | 281° |
| 2026-04-24 12:17 | 21.97148 | 52.31587 | 33771 ft | 462 kts | 281° |
| 2026-04-24 12:17 | 21.98383 | 52.24802 | 33781 ft | 462 kts | 281° |
| 2026-04-24 12:18 | 21.99614 | 52.18019 | 33787 ft | 461 kts | 281° |
| 2026-04-24 12:18 | 22.00844 | 52.11236 | 33789 ft | 461 kts | 281° |
| 2026-04-24 12:19 | 22.02070 | 52.04459 | 33787 ft | 461 kts | 281° |
| 2026-04-24 12:19 | 22.03293 | 51.97683 | 33782 ft | 460 kts | 280° |
| 2026-04-24 12:20 | 22.04512 | 51.90911 | 33782 ft | 460 kts | 280° |
| 2026-04-24 12:20 | 22.05725 | 51.84152 | 33781 ft | 459 kts | 280° |
| 2026-04-24 12:21 | 22.06936 | 51.77391 | 33792 ft | 459 kts | 280° |
| 2026-04-24 12:21 | 22.08135 | 51.70682 | 33795 ft | 458 kts | 280° |
| 2026-04-24 12:22 | 22.09337 | 51.63935 | 33783 ft | 458 kts | 280° |
| 2026-04-24 12:22 | 22.10536 | 51.57190 | 33788 ft | 458 kts | 280° |
| 2026-04-24 12:23 | 22.11732 | 51.50446 | 33786 ft | 458 kts | 280° |
| 2026-04-24 12:23 | 22.12924 | 51.43710 | 33790 ft | 457 kts | 280° |
| 2026-04-24 12:24 | 22.14110 | 51.36993 | 33781 ft | 456 kts | 280° |
| 2026-04-24 12:24 | 22.15292 | 51.30277 | 33786 ft | 455 kts | 280° |
| 2026-04-24 12:25 | 22.16467 | 51.23583 | 33794 ft | 454 kts | 280° |
| 2026-04-24 12:25 | 22.17639 | 51.16894 | 33792 ft | 453 kts | 279° |
| 2026-04-24 12:26 | 22.18804 | 51.10224 | 33791 ft | 452 kts | 280° |
| 2026-04-24 12:26 | 22.19962 | 51.03577 | 33789 ft | 450 kts | 279° |
| 2026-04-24 12:27 | 22.21114 | 50.96955 | 33789 ft | 448 kts | 279° |
| 2026-04-24 12:27 | 22.22257 | 50.90361 | 33802 ft | 446 kts | 279° |
| 2026-04-24 12:28 | 22.23395 | 50.83781 | 33800 ft | 445 kts | 279° |
| 2026-04-24 12:28 | 22.24528 | 50.77214 | 33792 ft | 445 kts | 279° |
| 2026-04-24 12:29 | 22.25660 | 50.70640 | 33794 ft | 446 kts | 279° |
| 2026-04-24 12:29 | 22.26790 | 50.64055 | 33802 ft | 447 kts | 279° |
| 2026-04-24 12:30 | 22.27921 | 50.57454 | 33799 ft | 448 kts | 279° |
| 2026-04-24 12:30 | 22.29046 | 50.50868 | 33802 ft | 449 kts | 279° |
| 2026-04-24 12:31 | 22.30185 | 50.44180 | 33795 ft | 450 kts | 279° |
| 2026-04-24 12:31 | 22.31317 | 50.37522 | 33798 ft | 451 kts | 279° |
| 2026-04-24 12:32 | 22.32449 | 50.30850 | 33798 ft | 452 kts | 279° |
| 2026-04-24 12:32 | 22.33578 | 50.24167 | 33799 ft | 452 kts | 279° |
| 2026-04-24 12:33 | 22.34697 | 50.17537 | 33798 ft | 452 kts | 279° |
| 2026-04-24 12:33 | 22.35820 | 50.10857 | 33801 ft | 451 kts | 279° |
| 2026-04-24 12:34 | 22.36937 | 50.04200 | 33808 ft | 450 kts | 279° |
| 2026-04-24 12:34 | 22.38051 | 49.97547 | 33800 ft | 450 kts | 279° |
| 2026-04-24 12:35 | 22.39160 | 49.90900 | 33802 ft | 449 kts | 279° |
| 2026-04-24 12:35 | 22.40268 | 49.84246 | 33799 ft | 450 kts | 279° |
| 2026-04-24 12:36 | 22.41373 | 49.77585 | 33802 ft | 451 kts | 279° |
| 2026-04-24 12:36 | 22.42478 | 49.70913 | 33808 ft | 452 kts | 279° |
| 2026-04-24 12:37 | 22.43584 | 49.64216 | 33800 ft | 453 kts | 279° |
| 2026-04-24 12:37 | 22.44690 | 49.57507 | 33801 ft | 454 kts | 279° |
| 2026-04-24 12:38 | 22.45795 | 49.50775 | 33810 ft | 455 kts | 278° |
| 2026-04-24 12:38 | 22.46900 | 49.44035 | 33804 ft | 455 kts | 278° |
| 2026-04-24 12:39 | 22.49100 | 49.30555 | 33802 ft | 455 kts | 278° |
| 2026-04-24 12:40 | 22.50194 | 49.23820 | 33803 ft | 455 kts | 278° |
| 2026-04-24 12:40 | 22.51286 | 49.17085 | 33801 ft | 454 kts | 278° |
| 2026-04-24 12:41 | 22.52373 | 49.10357 | 33803 ft | 455 kts | 278° |
| 2026-04-24 12:41 | 22.53453 | 49.03659 | 33806 ft | 455 kts | 278° |
| 2026-04-24 12:42 | 22.54536 | 48.96923 | 33812 ft | 455 kts | 278° |
| 2026-04-24 12:42 | 22.55617 | 48.90180 | 33806 ft | 455 kts | 278° |
| 2026-04-24 12:43 | 22.56696 | 48.83431 | 33810 ft | 455 kts | 277° |
| 2026-04-24 12:43 | 22.57772 | 48.76681 | 33811 ft | 455 kts | 277° |
| 2026-04-24 12:44 | 22.58845 | 48.69935 | 33811 ft | 455 kts | 277° |
| 2026-04-24 12:44 | 22.59914 | 48.63189 | 33815 ft | 454 kts | 277° |
| 2026-04-24 12:45 | 22.60978 | 48.56460 | 33812 ft | 454 kts | 277° |
| 2026-04-24 12:45 | 22.62038 | 48.49736 | 33808 ft | 453 kts | 277° |
| 2026-04-24 12:46 | 22.63095 | 48.43017 | 33811 ft | 452 kts | 277° |
| 2026-04-24 12:46 | 22.64145 | 48.36315 | 33817 ft | 452 kts | 277° |
| 2026-04-24 12:47 | 22.65193 | 48.29615 | 33811 ft | 451 kts | 277° |
| 2026-04-24 12:47 | 22.66235 | 48.22925 | 33813 ft | 450 kts | 277° |
| 2026-04-24 12:48 | 22.67274 | 48.16248 | 33812 ft | 449 kts | 277° |
| 2026-04-24 12:48 | 22.68307 | 48.09581 | 33813 ft | 448 kts | 277° |
| 2026-04-24 12:49 | 22.69293 | 48.02930 | 33811 ft | 446 kts | 274° |
| 2026-04-24 12:49 | 22.69874 | 47.96252 | 33820 ft | 445 kts | 273° |
| 2026-04-24 12:50 | 22.70404 | 47.89577 | 33814 ft | 444 kts | 273° |
| 2026-04-24 12:50 | 22.70943 | 47.82913 | 33817 ft | 444 kts | 273° |
| 2026-04-24 12:51 | 22.71489 | 47.76257 | 33824 ft | 444 kts | 273° |
| 2026-04-24 12:51 | 22.72036 | 47.69595 | 33827 ft | 445 kts | 273° |
| 2026-04-24 12:51 | 22.72310 | 47.66247 | 33980 ft | 447 kts | 273° |
| 2026-04-24 12:52 | 22.72582 | 47.62914 | 34431 ft | 442 kts | 273° |
| 2026-04-24 12:52 | 22.72852 | 47.59605 | 34811 ft | 440 kts | 273° |
| 2026-04-24 12:52 | 22.73120 | 47.56298 | 35032 ft | 441 kts | 274° |
| 2026-04-24 12:52 | 22.73388 | 47.52991 | 35269 ft | 441 kts | 274° |
| 2026-04-24 12:53 | 22.73654 | 47.49695 | 35503 ft | 439 kts | 274° |
| 2026-04-24 12:53 | 22.73919 | 47.46407 | 35720 ft | 437 kts | 274° |
| 2026-04-24 12:53 | 22.74181 | 47.43144 | 35761 ft | 436 kts | 274° |
| 2026-04-24 12:54 | 22.74702 | 47.36627 | 35818 ft | 431 kts | 274° |
| 2026-04-24 12:54 | 22.75214 | 47.30194 | 35825 ft | 427 kts | 274° |
| 2026-04-24 12:55 | 22.75720 | 47.23803 | 35831 ft | 425 kts | 274° |
| 2026-04-24 12:55 | 22.76219 | 47.17462 | 35834 ft | 425 kts | 274° |
| 2026-04-24 12:56 | 22.76646 | 47.12112 | 35842 ft | 426 kts | 274° |
| 2026-04-24 12:56 | 22.77242 | 47.04673 | 35838 ft | 428 kts | 274° |
| 2026-04-24 12:57 | 22.77754 | 46.98234 | 35842 ft | 430 kts | 274° |
| 2026-04-24 12:57 | 22.78183 | 46.92812 | 35847 ft | 431 kts | 274° |
| 2026-04-24 12:58 | 22.78693 | 46.86336 | 35850 ft | 432 kts | 273° |
| 2026-04-24 12:58 | 22.79202 | 46.79842 | 35841 ft | 433 kts | 273° |
| 2026-04-24 12:59 | 22.79708 | 46.73344 | 35847 ft | 432 kts | 273° |
| 2026-04-24 12:59 | 22.80207 | 46.66902 | 35847 ft | 432 kts | 273° |
| 2026-04-24 13:00 | 22.80706 | 46.60429 | 35851 ft | 431 kts | 273° |
| 2026-04-24 13:00 | 22.81201 | 46.53968 | 35856 ft | 430 kts | 273° |
| 2026-04-24 13:01 | 22.81693 | 46.47519 | 35855 ft | 429 kts | 273° |
| 2026-04-24 13:01 | 22.82182 | 46.41069 | 35857 ft | 429 kts | 273° |
| 2026-04-24 13:02 | 22.82664 | 46.34643 | 35852 ft | 428 kts | 272° |
| 2026-04-24 13:02 | 22.83138 | 46.28210 | 35849 ft | 428 kts | 272° |
| 2026-04-24 13:03 | 22.83609 | 46.21785 | 35846 ft | 427 kts | 272° |
| 2026-04-24 13:03 | 22.84077 | 46.15373 | 35849 ft | 426 kts | 272° |
| 2026-04-24 13:04 | 22.84544 | 46.08963 | 35844 ft | 427 kts | 272° |
| 2026-04-24 13:04 | 22.85007 | 46.02553 | 35835 ft | 427 kts | 272° |
| 2026-04-24 13:05 | 22.85468 | 45.96132 | 35835 ft | 427 kts | 272° |
| 2026-04-24 13:05 | 22.85928 | 45.89703 | 35831 ft | 427 kts | 272° |
| 2026-04-24 13:06 | 22.86384 | 45.83278 | 35828 ft | 427 kts | 272° |
| 2026-04-24 13:06 | 22.86838 | 45.76853 | 35828 ft | 427 kts | 272° |
| 2026-04-24 13:07 | 22.87289 | 45.70436 | 35832 ft | 427 kts | 272° |
| 2026-04-24 13:07 | 22.87735 | 45.64057 | 35833 ft | 427 kts | 272° |
| 2026-04-24 13:08 | 22.88180 | 45.57644 | 35830 ft | 426 kts | 272° |
| 2026-04-24 13:08 | 22.88623 | 45.51234 | 35827 ft | 426 kts | 272° |
| 2026-04-24 13:09 | 22.89282 | 45.41614 | 35836 ft | 426 kts | 272° |
| 2026-04-24 13:09 | 22.89718 | 45.35213 | 35838 ft | 426 kts | 272° |
| 2026-04-24 13:10 | 22.90151 | 45.28801 | 35839 ft | 427 kts | 272° |
| 2026-04-24 13:10 | 22.90583 | 45.22381 | 35827 ft | 427 kts | 272° |
| 2026-04-24 13:11 | 22.91012 | 45.15962 | 35839 ft | 427 kts | 272° |
| 2026-04-24 13:11 | 22.91438 | 45.09545 | 35838 ft | 426 kts | 272° |
| 2026-04-24 13:12 | 22.91862 | 45.03128 | 35831 ft | 426 kts | 272° |
| 2026-04-24 13:12 | 22.92282 | 44.96753 | 35835 ft | 426 kts | 271° |
| 2026-04-24 13:13 | 22.92704 | 44.90299 | 35832 ft | 426 kts | 271° |
| 2026-04-24 13:13 | 22.93122 | 44.83883 | 35830 ft | 426 kts | 271° |
| 2026-04-24 13:14 | 22.93536 | 44.77471 | 35834 ft | 426 kts | 271° |
| 2026-04-24 13:14 | 22.93953 | 44.71069 | 35825 ft | 426 kts | 272° |
| 2026-04-24 13:15 | 22.94974 | 44.64762 | 35835 ft | 429 kts | 281° |
| 2026-04-24 13:15 | 22.96789 | 44.58571 | 35836 ft | 431 kts | 284° |
| 2026-04-24 13:16 | 22.98722 | 44.52413 | 35830 ft | 431 kts | 284° |
| 2026-04-24 13:16 | 23.00639 | 44.46261 | 35832 ft | 430 kts | 284° |
| 2026-04-24 13:17 | 23.02537 | 44.40119 | 35832 ft | 429 kts | 284° |
| 2026-04-24 13:17 | 23.04428 | 44.33973 | 35817 ft | 429 kts | 284° |
| 2026-04-24 13:18 | 23.06310 | 44.27843 | 35818 ft | 428 kts | 284° |
| 2026-04-24 13:18 | 23.08194 | 44.21702 | 35834 ft | 428 kts | 284° |
| 2026-04-24 13:19 | 23.10070 | 44.15574 | 35823 ft | 427 kts | 284° |
| 2026-04-24 13:19 | 23.11942 | 44.09453 | 35845 ft | 427 kts | 284° |
| 2026-04-24 13:20 | 23.13811 | 44.03331 | 35826 ft | 426 kts | 284° |
| 2026-04-24 13:20 | 23.15675 | 43.97214 | 35820 ft | 425 kts | 284° |
| 2026-04-24 13:21 | 23.17530 | 43.91124 | 35836 ft | 424 kts | 284° |
| 2026-04-24 13:21 | 23.19377 | 43.85044 | 35833 ft | 424 kts | 284° |
| 2026-04-24 13:22 | 23.21222 | 43.78962 | 35833 ft | 423 kts | 284° |
| 2026-04-24 13:22 | 23.23062 | 43.72888 | 35838 ft | 423 kts | 284° |
| 2026-04-24 13:23 | 23.24901 | 43.66808 | 35837 ft | 423 kts | 284° |
| 2026-04-24 13:23 | 23.26736 | 43.60730 | 35839 ft | 423 kts | 284° |
| 2026-04-24 13:24 | 23.28561 | 43.54679 | 35842 ft | 424 kts | 284° |
| 2026-04-24 13:24 | 23.30396 | 43.48572 | 35847 ft | 425 kts | 283° |
| 2026-04-24 13:25 | 23.32232 | 43.42453 | 35849 ft | 427 kts | 283° |
| 2026-04-24 13:25 | 23.34074 | 43.36304 | 35854 ft | 428 kts | 283° |
| 2026-04-24 13:26 | 23.35915 | 43.30148 | 35858 ft | 429 kts | 283° |
| 2026-04-24 13:26 | 23.37762 | 43.23963 | 35859 ft | 430 kts | 283° |
| 2026-04-24 13:27 | 23.39608 | 43.17772 | 35858 ft | 430 kts | 283° |
| 2026-04-24 13:27 | 23.41453 | 43.11570 | 35866 ft | 431 kts | 283° |
| 2026-04-24 13:28 | 23.43286 | 43.05367 | 35867 ft | 431 kts | 283° |
| 2026-04-24 13:28 | 23.45120 | 42.99150 | 35866 ft | 431 kts | 283° |
| 2026-04-24 13:29 | 23.46952 | 42.92931 | 35869 ft | 431 kts | 283° |
| 2026-04-24 13:29 | 23.48780 | 42.86714 | 35869 ft | 431 kts | 283° |
| 2026-04-24 13:30 | 23.50607 | 42.80495 | 35871 ft | 432 kts | 283° |
| 2026-04-24 13:30 | 23.52437 | 42.74258 | 35875 ft | 432 kts | 283° |
| 2026-04-24 13:31 | 23.54278 | 42.68023 | 35879 ft | 433 kts | 283° |
| 2026-04-24 13:31 | 23.56125 | 42.61768 | 35887 ft | 434 kts | 283° |
| 2026-04-24 13:32 | 23.57973 | 42.55500 | 35887 ft | 435 kts | 284° |
| 2026-04-24 13:32 | 23.59819 | 42.49219 | 35889 ft | 435 kts | 284° |
| 2026-04-24 13:33 | 23.61664 | 42.42932 | 35900 ft | 436 kts | 284° |
| 2026-04-24 13:33 | 23.63511 | 42.36629 | 35907 ft | 437 kts | 284° |
| 2026-04-24 13:34 | 23.65350 | 42.30345 | 35911 ft | 438 kts | 283° |
| 2026-04-24 13:34 | 23.67201 | 42.23969 | 35936 ft | 439 kts | 283° |
| 2026-04-24 13:35 | 23.69022 | 42.17637 | 35929 ft | 441 kts | 283° |
| 2026-04-24 13:35 | 23.70856 | 42.11252 | 35940 ft | 442 kts | 283° |
| 2026-04-24 13:36 | 23.72697 | 42.04842 | 35939 ft | 443 kts | 283° |
| 2026-04-24 13:36 | 23.74542 | 41.98411 | 35941 ft | 444 kts | 283° |
| 2026-04-24 13:37 | 23.76408 | 41.91982 | 35940 ft | 444 kts | 283° |
| 2026-04-24 13:37 | 23.78277 | 41.85564 | 35938 ft | 444 kts | 283° |
| 2026-04-24 13:38 | 23.80143 | 41.79129 | 35939 ft | 443 kts | 283° |
| 2026-04-24 13:38 | 23.81995 | 41.72713 | 35935 ft | 443 kts | 282° |
| 2026-04-24 13:39 | 23.83833 | 41.66308 | 35934 ft | 441 kts | 282° |
| 2026-04-24 13:39 | 23.85665 | 41.59918 | 35931 ft | 440 kts | 282° |
| 2026-04-24 13:40 | 23.87489 | 41.53549 | 35936 ft | 439 kts | 282° |
| 2026-04-24 13:40 | 23.89302 | 41.47192 | 35933 ft | 438 kts | 282° |
| 2026-04-24 13:41 | 23.91112 | 41.40838 | 35940 ft | 437 kts | 282° |
| 2026-04-24 13:41 | 23.92913 | 41.34503 | 35929 ft | 436 kts | 282° |
| 2026-04-24 13:42 | 23.94704 | 41.28195 | 35934 ft | 436 kts | 282° |
| 2026-04-24 13:42 | 23.96498 | 41.21860 | 35931 ft | 436 kts | 282° |
| 2026-04-24 13:43 | 23.98287 | 41.15532 | 35929 ft | 435 kts | 282° |
| 2026-04-24 13:43 | 24.00066 | 41.09225 | 35926 ft | 435 kts | 282° |
| 2026-04-24 13:44 | 24.01849 | 41.02896 | 35927 ft | 434 kts | 282° |
| 2026-04-24 13:44 | 24.03626 | 40.96580 | 35925 ft | 434 kts | 282° |
| 2026-04-24 13:45 | 24.05099 | 40.91331 | 35926 ft | 434 kts | 281° |
| 2026-04-24 13:45 | 24.07165 | 40.83954 | 35917 ft | 434 kts | 281° |
| 2026-04-24 13:46 | 24.08631 | 40.78707 | 35914 ft | 434 kts | 282° |
| 2026-04-24 13:46 | 24.10394 | 40.72388 | 35907 ft | 435 kts | 282° |
| 2026-04-24 13:47 | 24.12159 | 40.66051 | 35908 ft | 436 kts | 282° |
| 2026-04-24 13:47 | 24.13925 | 40.59700 | 35904 ft | 436 kts | 282° |
| 2026-04-24 13:48 | 24.15713 | 40.53347 | 35898 ft | 438 kts | 284° |
| 2026-04-24 13:48 | 24.18184 | 40.47215 | 35894 ft | 444 kts | 291° |
| 2026-04-24 13:49 | 24.21080 | 40.41245 | 35885 ft | 443 kts | 291° |
| 2026-04-24 13:49 | 24.23956 | 40.35288 | 35877 ft | 442 kts | 291° |
| 2026-04-24 13:50 | 24.26804 | 40.29341 | 35878 ft | 440 kts | 291° |
| 2026-04-24 13:50 | 24.29634 | 40.23405 | 35873 ft | 439 kts | 291° |
| 2026-04-24 13:51 | 24.32439 | 40.17513 | 35872 ft | 438 kts | 291° |
| 2026-04-24 13:51 | 24.35257 | 40.11587 | 35860 ft | 438 kts | 291° |
| 2026-04-24 13:52 | 24.38085 | 40.05635 | 35880 ft | 437 kts | 291° |
| 2026-04-24 13:52 | 24.40878 | 39.99746 | 35876 ft | 438 kts | 291° |
| 2026-04-24 13:53 | 24.43681 | 39.93830 | 35881 ft | 438 kts | 290° |
| 2026-04-24 13:53 | 24.46491 | 39.87893 | 35895 ft | 438 kts | 290° |
| 2026-04-24 13:54 | 24.49295 | 39.81960 | 35894 ft | 438 kts | 290° |
| 2026-04-24 13:54 | 24.52094 | 39.76035 | 35892 ft | 438 kts | 291° |
| 2026-04-24 13:55 | 24.55691 | 39.70504 | 35902 ft | 452 kts | 303° |
| 2026-04-24 13:55 | 24.60381 | 39.65800 | 35897 ft | 464 kts | 314° |
| 2026-04-24 13:56 | 24.65652 | 39.61643 | 35899 ft | 465 kts | 315° |
| 2026-04-24 13:56 | 24.70940 | 39.57521 | 35894 ft | 463 kts | 315° |
| 2026-04-24 13:57 | 24.76158 | 39.53391 | 35886 ft | 463 kts | 314° |
| 2026-04-24 13:57 | 24.81370 | 39.49223 | 35895 ft | 462 kts | 314° |
| 2026-04-24 13:58 | 24.86536 | 39.45081 | 35895 ft | 463 kts | 314° |
| 2026-04-24 13:58 | 24.91785 | 39.40871 | 35891 ft | 463 kts | 314° |
| 2026-04-24 13:59 | 24.96988 | 39.36697 | 35883 ft | 463 kts | 314° |
| 2026-04-24 13:59 | 25.02186 | 39.32522 | 35883 ft | 463 kts | 314° |
| 2026-04-24 14:00 | 25.07370 | 39.28353 | 35903 ft | 463 kts | 314° |
| 2026-04-24 14:00 | 25.12608 | 39.24135 | 35883 ft | 464 kts | 313° |
| 2026-04-24 14:01 | 25.17780 | 39.19968 | 35885 ft | 463 kts | 313° |
| 2026-04-24 14:01 | 25.22415 | 39.15251 | 35889 ft | 447 kts | 302° |
| 2026-04-24 14:02 | 25.26125 | 39.09861 | 35885 ft | 436 kts | 294° |
| 2026-04-24 14:02 | 25.29395 | 39.04231 | 35883 ft | 436 kts | 293° |
| 2026-04-24 14:03 | 25.32665 | 38.98573 | 35876 ft | 437 kts | 293° |
| 2026-04-24 14:03 | 25.35958 | 38.92913 | 35864 ft | 438 kts | 294° |
| 2026-04-24 14:04 | 25.39258 | 38.87256 | 35847 ft | 438 kts | 294° |
| 2026-04-24 14:04 | 25.42556 | 38.81605 | 35842 ft | 437 kts | 294° |
| 2026-04-24 14:05 | 25.45839 | 38.75971 | 35842 ft | 435 kts | 294° |
| 2026-04-24 14:05 | 25.49112 | 38.70346 | 35833 ft | 434 kts | 294° |
| 2026-04-24 14:06 | 25.52375 | 38.64731 | 35836 ft | 433 kts | 294° |
| 2026-04-24 14:06 | 25.55628 | 38.59123 | 35827 ft | 433 kts | 294° |
| 2026-04-24 14:07 | 25.58885 | 38.53502 | 35828 ft | 433 kts | 294° |
| 2026-04-24 14:07 | 25.62141 | 38.47877 | 35822 ft | 434 kts | 294° |
| 2026-04-24 14:08 | 25.65399 | 38.42244 | 35824 ft | 435 kts | 294° |
| 2026-04-24 14:08 | 25.68664 | 38.36591 | 35827 ft | 435 kts | 294° |
| 2026-04-24 14:09 | 25.71927 | 38.30934 | 35815 ft | 436 kts | 294° |
| 2026-04-24 14:09 | 25.75189 | 38.25273 | 35810 ft | 436 kts | 294° |
| 2026-04-24 14:10 | 25.78455 | 38.19598 | 35814 ft | 436 kts | 294° |
| 2026-04-24 14:10 | 25.81693 | 38.13966 | 35806 ft | 435 kts | 293° |
| 2026-04-24 14:11 | 25.84945 | 38.08303 | 35820 ft | 435 kts | 294° |
| 2026-04-24 14:12 | 25.89829 | 37.99775 | 35834 ft | 437 kts | 293° |
| 2026-04-24 14:12 | 25.93086 | 37.94083 | 35851 ft | 438 kts | 294° |
| 2026-04-24 14:13 | 25.96357 | 37.88363 | 35854 ft | 438 kts | 293° |
| 2026-04-24 14:13 | 25.99288 | 37.82497 | 35852 ft | 428 kts | 284° |
| 2026-04-24 14:14 | 26.01140 | 37.76283 | 35859 ft | 420 kts | 276° |
| 2026-04-24 14:14 | 26.02497 | 37.66728 | 35868 ft | 417 kts | 272° |
| 2026-04-24 14:15 | 26.03339 | 37.60335 | 35854 ft | 419 kts | 272° |
| 2026-04-24 14:15 | 26.04208 | 37.53914 | 35843 ft | 419 kts | 272° |
| 2026-04-24 14:16 | 26.05077 | 37.47507 | 35857 ft | 419 kts | 272° |
| 2026-04-24 14:17 | 26.06359 | 37.37872 | 35851 ft | 421 kts | 272° |
| 2026-04-24 14:17 | 26.07637 | 37.28203 | 35829 ft | 421 kts | 272° |
| 2026-04-24 14:18 | 26.08486 | 37.21771 | 35829 ft | 420 kts | 272° |
| 2026-04-24 14:18 | 26.09330 | 37.15351 | 35821 ft | 419 kts | 272° |
| 2026-04-24 14:19 | 26.10166 | 37.08972 | 35817 ft | 419 kts | 272° |
| 2026-04-24 14:19 | 26.11000 | 37.02572 | 35813 ft | 418 kts | 272° |
| 2026-04-24 14:20 | 26.11834 | 36.96157 | 35809 ft | 419 kts | 272° |
| 2026-04-24 14:20 | 26.12664 | 36.89746 | 35810 ft | 419 kts | 272° |
| 2026-04-24 14:21 | 26.13493 | 36.83326 | 35803 ft | 419 kts | 272° |
| 2026-04-24 14:21 | 26.14321 | 36.76897 | 35799 ft | 420 kts | 272° |
| 2026-04-24 14:22 | 26.15147 | 36.70449 | 35795 ft | 419 kts | 272° |
| 2026-04-24 14:23 | 26.16377 | 36.60809 | 35779 ft | 420 kts | 272° |
| 2026-04-24 14:23 | 26.17212 | 36.54376 | 35769 ft | 419 kts | 276° |
| 2026-04-24 14:23 | 26.18170 | 36.51271 | 35777 ft | 433 kts | 290° |
| 2026-04-24 14:24 | 26.19775 | 36.48395 | 35780 ft | 443 kts | 298° |
| 2026-04-24 14:24 | 26.21838 | 36.45786 | 35777 ft | 457 kts | 310° |
| 2026-04-24 14:24 | 26.24442 | 36.43663 | 35810 ft | 466 kts | 317° |
| 2026-04-24 14:25 | 26.28981 | 36.40389 | 35792 ft | 469 kts | 318° |
| 2026-04-24 14:25 | 26.35374 | 36.35836 | 35794 ft | 469 kts | 318° |
| 2026-04-24 14:26 | 26.40839 | 36.31854 | 35796 ft | 469 kts | 317° |
| 2026-04-24 14:26 | 26.46276 | 36.27834 | 35800 ft | 469 kts | 317° |
| 2026-04-24 14:27 | 26.51680 | 36.23820 | 35798 ft | 468 kts | 317° |
| 2026-04-24 14:27 | 26.57095 | 36.19795 | 35797 ft | 468 kts | 317° |
| 2026-04-24 14:28 | 26.62516 | 36.15763 | 35798 ft | 467 kts | 317° |
| 2026-04-24 14:28 | 26.67922 | 36.11738 | 35798 ft | 467 kts | 317° |
| 2026-04-24 14:29 | 26.73319 | 36.07715 | 35801 ft | 466 kts | 317° |
| 2026-04-24 14:29 | 26.78707 | 36.03695 | 35800 ft | 466 kts | 317° |
| 2026-04-24 14:30 | 26.83195 | 36.00342 | 35801 ft | 466 kts | 317° |
| 2026-04-24 14:30 | 26.89484 | 35.95639 | 35799 ft | 466 kts | 317° |
| 2026-04-24 14:31 | 26.94881 | 35.91597 | 35798 ft | 466 kts | 318° |
| 2026-04-24 14:31 | 27.00267 | 35.87560 | 35801 ft | 466 kts | 318° |
| 2026-04-24 14:32 | 27.05662 | 35.83511 | 35802 ft | 466 kts | 318° |
| 2026-04-24 14:32 | 27.10139 | 35.80147 | 35799 ft | 466 kts | 318° |
| 2026-04-24 14:33 | 27.15532 | 35.76090 | 35790 ft | 466 kts | 318° |
| 2026-04-24 14:33 | 27.20925 | 35.72029 | 35790 ft | 466 kts | 318° |
| 2026-04-24 14:34 | 27.26311 | 35.67968 | 35797 ft | 466 kts | 318° |
| 2026-04-24 14:34 | 27.31703 | 35.63898 | 35797 ft | 467 kts | 318° |
| 2026-04-24 14:35 | 27.37079 | 35.59835 | 35797 ft | 467 kts | 318° |
| 2026-04-24 14:35 | 27.42471 | 35.55755 | 35797 ft | 467 kts | 319° |
| 2026-04-24 14:36 | 27.47865 | 35.51669 | 35794 ft | 467 kts | 319° |
| 2026-04-24 14:36 | 27.53248 | 35.47587 | 35791 ft | 467 kts | 319° |
| 2026-04-24 14:37 | 27.58636 | 35.43496 | 35786 ft | 466 kts | 319° |
| 2026-04-24 14:37 | 27.64007 | 35.39412 | 35780 ft | 466 kts | 319° |
| 2026-04-24 14:38 | 27.69373 | 35.35327 | 35777 ft | 466 kts | 319° |
| 2026-04-24 14:38 | 27.74728 | 35.31246 | 35779 ft | 466 kts | 319° |
| 2026-04-24 14:39 | 27.80137 | 35.27118 | 35774 ft | 466 kts | 319° |
| 2026-04-24 14:39 | 27.85507 | 35.23016 | 35763 ft | 466 kts | 319° |
| 2026-04-24 14:40 | 27.90839 | 35.18937 | 35766 ft | 467 kts | 319° |
| 2026-04-24 14:40 | 27.96229 | 35.14809 | 35743 ft | 467 kts | 319° |
| 2026-04-24 14:41 | 28.01601 | 35.10690 | 35745 ft | 468 kts | 320° |
| 2026-04-24 14:41 | 28.06995 | 35.06549 | 35744 ft | 468 kts | 320° |
| 2026-04-24 14:42 | 28.12390 | 35.02401 | 35748 ft | 469 kts | 320° |
| 2026-04-24 14:42 | 28.17795 | 34.98241 | 35746 ft | 469 kts | 320° |
| 2026-04-24 14:43 | 28.23201 | 34.94076 | 35745 ft | 470 kts | 320° |
| 2026-04-24 14:43 | 28.28605 | 34.89907 | 35745 ft | 470 kts | 320° |
| 2026-04-24 14:44 | 28.33998 | 34.85742 | 35745 ft | 470 kts | 320° |
| 2026-04-24 14:44 | 28.39393 | 34.81569 | 35750 ft | 470 kts | 320° |
| 2026-04-24 14:45 | 28.44810 | 34.77374 | 35751 ft | 470 kts | 320° |
| 2026-04-24 14:45 | 28.50211 | 34.73187 | 35757 ft | 469 kts | 320° |
| 2026-04-24 14:46 | 28.55588 | 34.69012 | 35765 ft | 468 kts | 320° |
| 2026-04-24 14:46 | 28.60975 | 34.64824 | 35770 ft | 468 kts | 320° |
| 2026-04-24 14:47 | 28.66339 | 34.60649 | 35769 ft | 468 kts | 320° |
| 2026-04-24 14:47 | 28.71713 | 34.56461 | 35776 ft | 468 kts | 320° |
| 2026-04-24 14:48 | 28.77081 | 34.52271 | 35792 ft | 468 kts | 320° |
| 2026-04-24 14:48 | 28.82423 | 34.48096 | 35792 ft | 469 kts | 320° |
| 2026-04-24 14:49 | 28.87847 | 34.43853 | 35788 ft | 470 kts | 320° |
| 2026-04-24 14:49 | 28.93200 | 34.39660 | 35795 ft | 470 kts | 320° |
| 2026-04-24 14:50 | 28.98585 | 34.35438 | 35806 ft | 469 kts | 320° |
| 2026-04-24 14:50 | 29.03969 | 34.31210 | 35814 ft | 470 kts | 320° |
| 2026-04-24 14:51 | 29.09350 | 34.26977 | 35806 ft | 471 kts | 320° |
| 2026-04-24 14:51 | 29.14751 | 34.22725 | 35815 ft | 470 kts | 320° |
| 2026-04-24 14:52 | 29.20142 | 34.18476 | 35827 ft | 470 kts | 320° |
| 2026-04-24 14:52 | 29.25528 | 34.14224 | 35823 ft | 470 kts | 320° |
| 2026-04-24 14:53 | 29.30907 | 34.09972 | 35824 ft | 470 kts | 320° |
| 2026-04-24 14:53 | 29.36278 | 34.05721 | 35827 ft | 469 kts | 320° |
| 2026-04-24 14:54 | 29.41649 | 34.01465 | 35819 ft | 469 kts | 321° |
| 2026-04-24 14:54 | 29.47008 | 33.97212 | 35819 ft | 468 kts | 321° |
| 2026-04-24 14:55 | 29.51492 | 33.93649 | 35823 ft | 468 kts | 321° |
| 2026-04-24 14:55 | 29.57720 | 33.88695 | 35831 ft | 468 kts | 321° |
| 2026-04-24 14:56 | 29.63066 | 33.84435 | 35829 ft | 468 kts | 321° |
| 2026-04-24 14:56 | 29.68420 | 33.80164 | 35829 ft | 468 kts | 321° |
| 2026-04-24 14:57 | 29.73766 | 33.75894 | 35834 ft | 468 kts | 321° |
| 2026-04-24 14:57 | 29.79105 | 33.71624 | 35831 ft | 468 kts | 321° |
| 2026-04-24 14:58 | 29.84456 | 33.67338 | 35839 ft | 468 kts | 321° |
| 2026-04-24 14:58 | 29.89798 | 33.63055 | 35836 ft | 468 kts | 321° |
| 2026-04-24 14:59 | 29.95130 | 33.58772 | 35843 ft | 468 kts | 321° |
| 2026-04-24 14:59 | 30.00466 | 33.54482 | 35841 ft | 467 kts | 321° |
| 2026-04-24 15:00 | 30.05769 | 33.50212 | 35841 ft | 467 kts | 321° |
| 2026-04-24 15:00 | 30.11127 | 33.45892 | 35850 ft | 467 kts | 320° |
| 2026-04-24 15:01 | 30.16423 | 33.41617 | 35855 ft | 467 kts | 320° |
| 2026-04-24 15:01 | 30.21748 | 33.37312 | 35852 ft | 467 kts | 320° |
| 2026-04-24 15:02 | 30.27082 | 33.32994 | 35860 ft | 468 kts | 320° |
| 2026-04-24 15:02 | 30.32420 | 33.28667 | 35870 ft | 469 kts | 320° |
| 2026-04-24 15:03 | 30.36897 | 33.25033 | 35870 ft | 469 kts | 320° |
| 2026-04-24 15:03 | 30.43118 | 33.19977 | 35870 ft | 470 kts | 320° |
| 2026-04-24 15:04 | 30.48476 | 33.15617 | 35875 ft | 471 kts | 320° |
| 2026-04-24 15:04 | 30.53845 | 33.11240 | 35886 ft | 472 kts | 320° |
| 2026-04-24 15:05 | 30.59219 | 33.06855 | 35888 ft | 472 kts | 320° |
| 2026-04-24 15:05 | 30.64589 | 33.02466 | 35889 ft | 473 kts | 320° |
| 2026-04-24 15:06 | 30.69969 | 32.98062 | 35893 ft | 473 kts | 320° |
| 2026-04-24 15:06 | 30.75349 | 32.93653 | 35892 ft | 473 kts | 320° |
| 2026-04-24 15:07 | 30.80727 | 32.89240 | 35889 ft | 474 kts | 320° |
| 2026-04-24 15:07 | 30.86113 | 32.84814 | 35898 ft | 473 kts | 320° |
| 2026-04-24 15:08 | 30.91491 | 32.80388 | 35899 ft | 474 kts | 319° |
| 2026-04-24 15:08 | 30.96864 | 32.75959 | 35897 ft | 474 kts | 319° |
| 2026-04-24 15:09 | 31.02243 | 32.71520 | 35899 ft | 473 kts | 319° |
| 2026-04-24 15:09 | 31.07611 | 32.67083 | 35906 ft | 473 kts | 319° |
| 2026-04-24 15:10 | 31.12960 | 32.62656 | 35909 ft | 472 kts | 319° |
| 2026-04-24 15:10 | 31.18310 | 32.58223 | 35915 ft | 471 kts | 319° |
| 2026-04-24 15:11 | 31.23654 | 32.53787 | 35911 ft | 470 kts | 319° |
| 2026-04-24 15:11 | 31.28974 | 32.49365 | 35916 ft | 469 kts | 319° |
| 2026-04-24 15:12 | 31.34295 | 32.44936 | 35914 ft | 468 kts | 319° |
| 2026-04-24 15:12 | 31.42247 | 32.38305 | 35904 ft | 468 kts | 319° |
| 2026-04-24 15:13 | 31.47541 | 32.33883 | 35905 ft | 467 kts | 319° |
| 2026-04-24 15:13 | 31.52829 | 32.29459 | 35912 ft | 467 kts | 319° |
| 2026-04-24 15:14 | 31.58120 | 32.25027 | 35911 ft | 467 kts | 319° |
| 2026-04-24 15:14 | 31.63405 | 32.20593 | 35912 ft | 467 kts | 319° |
| 2026-04-24 15:15 | 31.68690 | 32.16153 | 35909 ft | 467 kts | 319° |
| 2026-04-24 15:15 | 31.73981 | 32.11703 | 35910 ft | 467 kts | 319° |
| 2026-04-24 15:16 | 31.79259 | 32.07256 | 35908 ft | 467 kts | 319° |
| 2026-04-24 15:16 | 31.84504 | 32.02831 | 35907 ft | 467 kts | 319° |
| 2026-04-24 15:17 | 31.89813 | 31.98346 | 35903 ft | 466 kts | 319° |
| 2026-04-24 15:17 | 31.95043 | 31.93921 | 35904 ft | 466 kts | 318° |
| 2026-04-24 15:18 | 32.00303 | 31.89464 | 35907 ft | 465 kts | 318° |
| 2026-04-24 15:18 | 32.05550 | 31.85011 | 35904 ft | 465 kts | 318° |
| 2026-04-24 15:19 | 32.10795 | 31.80555 | 35904 ft | 464 kts | 318° |
| 2026-04-24 15:19 | 32.16030 | 31.76099 | 35902 ft | 464 kts | 318° |
| 2026-04-24 15:20 | 32.21266 | 31.71637 | 35908 ft | 464 kts | 318° |
| 2026-04-24 15:20 | 32.25614 | 31.67926 | 35906 ft | 464 kts | 318° |
| 2026-04-24 15:21 | 32.30847 | 31.63454 | 35908 ft | 465 kts | 318° |
| 2026-04-24 15:21 | 32.36087 | 31.58970 | 35912 ft | 465 kts | 318° |
| 2026-04-24 15:22 | 32.41333 | 31.54473 | 35915 ft | 466 kts | 318° |
| 2026-04-24 15:23 | 32.49215 | 31.47706 | 35915 ft | 467 kts | 318° |
| 2026-04-24 15:23 | 32.57105 | 31.40917 | 35920 ft | 468 kts | 317° |
| 2026-04-24 15:25 | 32.70268 | 31.29556 | 35919 ft | 468 kts | 317° |
| 2026-04-24 15:26 | 32.83421 | 31.18162 | 35919 ft | 467 kts | 317° |
| 2026-04-24 15:27 | 32.99152 | 31.04476 | 35921 ft | 467 kts | 317° |
| 2026-04-24 15:29 | 33.15228 | 30.91286 | 35933 ft | 472 kts | 324° |
| 2026-04-24 15:31 | 33.35161 | 30.77659 | 35934 ft | 472 kts | 324° |
| 2026-04-24 15:33 | 33.57908 | 30.61867 | 35932 ft | 472 kts | 324° |
| 2026-04-24 15:34 | 33.72102 | 30.51966 | 35935 ft | 472 kts | 323° |
| 2026-04-24 15:35 | 33.86278 | 30.42039 | 35934 ft | 471 kts | 323° |
| 2026-04-24 15:36 | 33.91942 | 30.38062 | 35933 ft | 471 kts | 323° |
| 2026-04-24 15:36 | 34.00432 | 30.32089 | 35937 ft | 471 kts | 323° |
| 2026-04-24 15:37 | 34.06092 | 30.28100 | 35936 ft | 471 kts | 323° |
| 2026-04-24 15:37 | 34.11749 | 30.24106 | 35937 ft | 471 kts | 323° |
| 2026-04-24 15:38 | 34.17408 | 30.20104 | 35941 ft | 471 kts | 323° |
| 2026-04-24 15:38 | 34.23022 | 30.16129 | 35942 ft | 471 kts | 323° |
| 2026-04-24 15:39 | 34.28670 | 30.12122 | 35930 ft | 470 kts | 323° |
| 2026-04-24 15:39 | 34.34311 | 30.08113 | 35933 ft | 470 kts | 323° |
| 2026-04-24 15:40 | 34.39948 | 30.04102 | 35934 ft | 470 kts | 323° |
| 2026-04-24 15:40 | 34.45467 | 29.99842 | 35934 ft | 463 kts | 316° |
| 2026-04-24 15:41 | 34.50146 | 29.94683 | 35942 ft | 455 kts | 308° |
| 2026-04-24 15:41 | 34.54545 | 29.89179 | 35942 ft | 455 kts | 308° |
| 2026-04-24 15:42 | 34.58955 | 29.83669 | 35939 ft | 455 kts | 308° |
| 2026-04-24 15:42 | 34.63380 | 29.78176 | 35937 ft | 455 kts | 308° |
| 2026-04-24 15:43 | 34.67817 | 29.72679 | 35940 ft | 455 kts | 308° |
| 2026-04-24 15:43 | 34.72249 | 29.67180 | 35940 ft | 455 kts | 308° |
| 2026-04-24 15:44 | 34.76676 | 29.61677 | 35943 ft | 455 kts | 308° |
| 2026-04-24 15:44 | 34.81098 | 29.56169 | 35938 ft | 455 kts | 308° |
| 2026-04-24 15:45 | 34.85516 | 29.50658 | 35938 ft | 455 kts | 308° |
| 2026-04-24 15:45 | 34.89934 | 29.45137 | 35935 ft | 455 kts | 308° |
| 2026-04-24 15:46 | 34.94343 | 29.39619 | 35939 ft | 455 kts | 308° |
| 2026-04-24 15:46 | 34.98776 | 29.34114 | 35940 ft | 457 kts | 310° |
| 2026-04-24 15:47 | 35.03766 | 29.29200 | 35950 ft | 463 kts | 316° |
| 2026-04-24 15:47 | 35.08957 | 29.24537 | 35943 ft | 464 kts | 317° |
| 2026-04-24 15:48 | 35.14146 | 29.19854 | 35938 ft | 464 kts | 316° |
| 2026-04-24 15:48 | 35.19318 | 29.15138 | 35944 ft | 464 kts | 316° |
| 2026-04-24 15:49 | 35.24478 | 29.10409 | 35941 ft | 464 kts | 316° |
| 2026-04-24 15:49 | 35.29640 | 29.05668 | 35941 ft | 464 kts | 316° |
| 2026-04-24 15:50 | 35.34793 | 29.00929 | 35942 ft | 463 kts | 316° |
| 2026-04-24 15:50 | 35.39947 | 28.96184 | 35941 ft | 463 kts | 316° |
| 2026-04-24 15:51 | 35.45062 | 28.91465 | 35946 ft | 463 kts | 316° |
| 2026-04-24 15:51 | 35.50207 | 28.86712 | 35943 ft | 463 kts | 316° |